sensor_id;sensor_type;location;lat;lon;timestamp;temperature;humidity
64561;DHT22;50960;46.838;16.838;2023-10-31T04:17:04;16.40;77.20
64561;DHT22;50960;46.838;16.838;2023-10-31T04:19:31;16.30;78.50
64561;DHT22;50960;46.838;16.838;2023-10-31T04:21:57;16.30;79.00
64561;DHT22;50960;46.838;16.838;2023-10-31T04:24:23;16.30;79.10
64561;DHT22;50960;46.838;16.838;2023-10-31T04:26:49;16.40;79.90
64561;DHT22;50960;46.838;16.838;2023-10-31T04:29:16;16.40;80.00
64561;DHT22;50960;46.838;16.838;2023-10-31T04:31:42;16.40;80.40
64561;DHT22;50960;46.838;16.838;2023-10-31T04:34:08;16.50;81.10
64561;DHT22;50960;46.838;16.838;2023-10-31T04:36:35;16.50;81.70
64561;DHT22;50960;46.838;16.838;2023-10-31T04:39:01;16.50;82.30
64561;DHT22;50960;46.838;16.838;2023-10-31T04:41:27;16.50;82.40
64561;DHT22;50960;46.838;16.838;2023-10-31T04:43:54;16.50;82.80
64561;DHT22;50960;46.838;16.838;2023-10-31T04:46:21;16.60;83.60
64561;DHT22;50960;46.838;16.838;2023-10-31T04:48:47;16.60;84.70
64561;DHT22;50960;46.838;16.838;2023-10-31T04:51:14;16.70;84.20
64561;DHT22;50960;46.838;16.838;2023-10-31T04:53:40;16.60;84.40
64561;DHT22;50960;46.838;16.838;2023-10-31T04:56:12;16.60;85.40
64561;DHT22;50960;46.838;16.838;2023-10-31T04:58:40;16.60;86.50
64561;DHT22;50960;46.838;16.838;2023-10-31T05:01:13;16.80;90.00
64561;DHT22;50960;46.838;16.838;2023-10-31T05:03:39;16.90;92.60
64561;DHT22;50960;46.838;16.838;2023-10-31T05:06:06;16.80;92.50
64561;DHT22;50960;46.838;16.838;2023-10-31T05:08:32;16.70;92.80
64561;DHT22;50960;46.838;16.838;2023-10-31T05:10:59;16.80;94.70
64561;DHT22;50960;46.838;16.838;2023-10-31T05:13:27;16.80;96.70
64561;DHT22;50960;46.838;16.838;2023-10-31T05:15:53;16.90;99.30
64561;DHT22;50960;46.838;16.838;2023-10-31T05:18:20;16.80;99.90
64561;DHT22;50960;46.838;16.838;2023-10-31T05:20:46;16.90;99.90
64561;DHT22;50960;46.838;16.838;2023-10-31T05:23:13;16.90;99.90
64561;DHT22;50960;46.838;16.838;2023-10-31T05:25:39;16.90;99.90
64561;DHT22;50960;46.838;16.838;2023-10-31T05:28:05;16.90;99.90
64561;DHT22;50960;46.838;16.838;2023-10-31T05:30:32;16.90;99.90
64561;DHT22;50960;46.838;16.838;2023-10-31T05:32:58;16.80;99.90
64561;DHT22;50960;46.838;16.838;2023-10-31T05:35:24;16.70;99.90
64561;DHT22;50960;46.838;16.838;2023-10-31T05:37:51;16.80;99.90
64561;DHT22;50960;46.838;16.838;2023-10-31T05:40:18;16.80;99.90
64561;DHT22;50960;46.838;16.838;2023-10-31T05:42:44;16.70;99.90
64561;DHT22;50960;46.838;16.838;2023-10-31T05:45:10;16.70;99.90
64561;DHT22;50960;46.838;16.838;2023-10-31T05:47:37;16.80;99.90
64561;DHT22;50960;46.838;16.838;2023-10-31T05:50:05;16.80;99.90
64561;DHT22;50960;46.838;16.838;2023-10-31T05:52:31;16.80;99.90
64561;DHT22;50960;46.838;16.838;2023-10-31T05:54:58;16.80;99.90
64561;DHT22;50960;46.838;16.838;2023-10-31T05:57:24;16.70;99.90
64561;DHT22;50960;46.838;16.838;2023-10-31T05:59:51;16.80;99.90
64561;DHT22;50960;46.838;16.838;2023-10-31T06:02:17;16.90;99.90
64561;DHT22;50960;46.838;16.838;2023-10-31T06:04:44;16.90;99.90
64561;DHT22;50960;46.838;16.838;2023-10-31T06:07:11;16.90;99.90
64561;DHT22;50960;46.838;16.838;2023-10-31T06:09:38;17.00;99.90
64561;DHT22;50960;46.838;16.838;2023-10-31T06:12:04;16.90;99.90
64561;DHT22;50960;46.838;16.838;2023-10-31T06:14:35;17.20;99.90
64561;DHT22;50960;46.838;16.838;2023-10-31T06:17:04;17.00;99.90
64561;DHT22;50960;46.838;16.838;2023-10-31T06:19:34;17.00;99.90
64561;DHT22;50960;46.838;16.838;2023-10-31T07:20:56;17.60;99.90
64561;DHT22;50960;46.838;16.838;2023-10-31T07:23:23;17.50;99.90
64561;DHT22;50960;46.838;16.838;2023-10-31T07:25:50;17.50;99.90
64561;DHT22;50960;46.838;16.838;2023-10-31T07:35:07;17.50;99.90
64561;DHT22;50960;46.838;16.838;2023-10-31T07:37:33;17.50;99.90
64561;DHT22;50960;46.838;16.838;2023-10-31T07:40:00;17.60;99.90
64561;DHT22;50960;46.838;16.838;2023-10-31T07:42:26;17.60;99.90
64561;DHT22;50960;46.838;16.838;2023-10-31T07:44:52;17.70;99.90
64561;DHT22;50960;46.838;16.838;2023-10-31T07:47:18;17.70;99.90
64561;DHT22;50960;46.838;16.838;2023-10-31T07:49:45;17.80;99.90
64561;DHT22;50960;46.838;16.838;2023-10-31T07:52:11;17.80;99.90
64561;DHT22;50960;46.838;16.838;2023-10-31T07:54:40;17.80;99.90
64561;DHT22;50960;46.838;16.838;2023-10-31T07:57:07;17.80;99.90
64561;DHT22;50960;46.838;16.838;2023-10-31T07:59:34;17.80;99.90
64561;DHT22;50960;46.838;16.838;2023-10-31T08:02:01;17.80;99.90
64561;DHT22;50960;46.838;16.838;2023-10-31T08:04:27;17.70;99.90
64561;DHT22;50960;46.838;16.838;2023-10-31T08:06:56;17.70;99.90
64561;DHT22;50960;46.838;16.838;2023-10-31T08:09:23;17.60;99.90
64561;DHT22;50960;46.838;16.838;2023-10-31T08:11:49;17.50;99.90
64561;DHT22;50960;46.838;16.838;2023-10-31T08:14:15;17.40;99.90
64561;DHT22;50960;46.838;16.838;2023-10-31T08:16:42;17.40;99.90
64561;DHT22;50960;46.838;16.838;2023-10-31T08:19:08;17.50;99.90
64561;DHT22;50960;46.838;16.838;2023-10-31T08:21:36;17.50;99.90
64561;DHT22;50960;46.838;16.838;2023-10-31T08:24:06;17.60;99.90
64561;DHT22;50960;46.838;16.838;2023-10-31T08:26:33;17.60;99.90
64561;DHT22;50960;46.838;16.838;2023-10-31T08:29:00;17.80;99.90
64561;DHT22;50960;46.838;16.838;2023-10-31T08:31:26;17.80;99.90
64561;DHT22;50960;46.838;16.838;2023-10-31T08:33:52;17.80;99.90
64561;DHT22;50960;46.838;16.838;2023-10-31T08:36:19;17.70;99.90
64561;DHT22;50960;46.838;16.838;2023-10-31T08:38:45;17.70;99.90
64561;DHT22;50960;46.838;16.838;2023-10-31T08:41:19;17.60;99.90
64561;DHT22;50960;46.838;16.838;2023-10-31T08:43:47;17.70;99.90
64561;DHT22;50960;46.838;16.838;2023-10-31T08:46:13;17.90;99.90
64561;DHT22;50960;46.838;16.838;2023-10-31T08:48:39;18.10;99.90
64561;DHT22;50960;46.838;16.838;2023-10-31T08:51:06;18.30;99.90
64561;DHT22;50960;46.838;16.838;2023-10-31T08:53:34;18.30;99.90
64561;DHT22;50960;46.838;16.838;2023-10-31T08:56:00;18.30;99.90
64561;DHT22;50960;46.838;16.838;2023-10-31T08:58:28;18.20;99.90
64561;DHT22;50960;46.838;16.838;2023-10-31T09:00:55;18.30;99.90
64561;DHT22;50960;46.838;16.838;2023-10-31T09:03:21;18.30;99.90
64561;DHT22;50960;46.838;16.838;2023-10-31T09:05:48;18.50;99.90
64561;DHT22;50960;46.838;16.838;2023-10-31T09:08:14;18.50;99.90
64561;DHT22;50960;46.838;16.838;2023-10-31T09:10:42;18.50;99.90
64561;DHT22;50960;46.838;16.838;2023-10-31T09:13:12;18.70;99.90
64561;DHT22;50960;46.838;16.838;2023-10-31T09:15:39;18.80;99.90
64561;DHT22;50960;46.838;16.838;2023-10-31T09:18:05;18.80;99.90
64561;DHT22;50960;46.838;16.838;2023-10-31T09:20:32;18.90;99.90
64561;DHT22;50960;46.838;16.838;2023-10-31T09:22:59;18.80;99.90
64561;DHT22;50960;46.838;16.838;2023-10-31T09:25:25;18.90;99.90
64561;DHT22;50960;46.838;16.838;2023-10-31T09:27:51;18.90;99.90
64561;DHT22;50960;46.838;16.838;2023-10-31T09:30:18;19.10;99.90
64561;DHT22;50960;46.838;16.838;2023-10-31T09:32:44;19.20;99.90
64561;DHT22;50960;46.838;16.838;2023-10-31T09:35:10;19.10;99.90
64561;DHT22;50960;46.838;16.838;2023-10-31T09:37:38;19.20;99.90
64561;DHT22;50960;46.838;16.838;2023-10-31T09:40:05;19.30;99.90
64561;DHT22;50960;46.838;16.838;2023-10-31T09:42:31;19.20;99.90
64561;DHT22;50960;46.838;16.838;2023-10-31T09:44:59;18.90;99.90
64561;DHT22;50960;46.838;16.838;2023-10-31T09:47:25;18.70;99.90
64561;DHT22;50960;46.838;16.838;2023-10-31T09:49:53;18.50;99.90
64561;DHT22;50960;46.838;16.838;2023-10-31T09:52:19;18.30;99.90
64561;DHT22;50960;46.838;16.838;2023-10-31T09:54:48;18.30;99.90
64561;DHT22;50960;46.838;16.838;2023-10-31T09:57:15;18.20;99.90
64561;DHT22;50960;46.838;16.838;2023-10-31T09:59:43;18.00;99.90
64561;DHT22;50960;46.838;16.838;2023-10-31T10:02:09;17.90;99.90
64561;DHT22;50960;46.838;16.838;2023-10-31T10:04:39;17.80;99.90
64561;DHT22;50960;46.838;16.838;2023-10-31T10:07:05;17.50;99.90
64561;DHT22;50960;46.838;16.838;2023-10-31T10:09:32;17.20;99.90
64561;DHT22;50960;46.838;16.838;2023-10-31T12:59:39;14.50;99.90
64561;DHT22;50960;46.838;16.838;2023-10-31T13:02:07;14.40;99.90
64561;DHT22;50960;46.838;16.838;2023-10-31T13:04:34;14.50;99.90
64561;DHT22;50960;46.838;16.838;2023-10-31T13:07:02;14.30;99.90
64561;DHT22;50960;46.838;16.838;2023-10-31T17:19:59;11.70;99.90
64561;DHT22;50960;46.838;16.838;2023-10-31T17:22:27;11.50;99.90
64561;DHT22;50960;46.838;16.838;2023-10-31T17:24:53;11.50;99.90
64561;DHT22;50960;46.838;16.838;2023-10-31T17:27:19;11.60;99.90
64561;DHT22;50960;46.838;16.838;2023-10-31T17:29:49;11.60;99.90
64561;DHT22;50960;46.838;16.838;2023-10-31T17:32:15;11.50;99.90
64561;DHT22;50960;46.838;16.838;2023-10-31T17:34:41;11.50;99.90
64561;DHT22;50960;46.838;16.838;2023-10-31T17:37:08;11.50;99.90
64561;DHT22;50960;46.838;16.838;2023-10-31T17:39:34;11.50;99.90
64561;DHT22;50960;46.838;16.838;2023-10-31T17:42:00;11.50;99.90
64561;DHT22;50960;46.838;16.838;2023-10-31T17:44:27;11.60;99.90
64561;DHT22;50960;46.838;16.838;2023-10-31T17:46:54;11.60;99.90
64561;DHT22;50960;46.838;16.838;2023-10-31T17:49:20;11.50;99.90
64561;DHT22;50960;46.838;16.838;2023-10-31T17:51:48;11.60;99.90
64561;DHT22;50960;46.838;16.838;2023-10-31T17:54:14;11.60;99.90
64561;DHT22;50960;46.838;16.838;2023-10-31T17:56:42;11.60;99.90
64561;DHT22;50960;46.838;16.838;2023-10-31T17:59:09;11.60;99.90
64561;DHT22;50960;46.838;16.838;2023-10-31T18:01:35;11.70;99.90
64561;DHT22;50960;46.838;16.838;2023-10-31T18:04:01;11.70;99.90
64561;DHT22;50960;46.838;16.838;2023-10-31T18:06:27;11.70;99.90
64561;DHT22;50960;46.838;16.838;2023-10-31T18:08:54;11.70;99.90
64561;DHT22;50960;46.838;16.838;2023-10-31T18:11:21;11.70;99.90
64561;DHT22;50960;46.838;16.838;2023-10-31T18:13:47;11.70;99.90
64561;DHT22;50960;46.838;16.838;2023-10-31T18:16:14;11.70;99.90
64561;DHT22;50960;46.838;16.838;2023-10-31T18:18:41;11.80;99.90
64561;DHT22;50960;46.838;16.838;2023-10-31T18:21:10;11.70;99.90
64561;DHT22;50960;46.838;16.838;2023-10-31T18:23:37;11.70;99.90
64561;DHT22;50960;46.838;16.838;2023-10-31T18:26:04;11.70;99.90
64561;DHT22;50960;46.838;16.838;2023-10-31T18:28:31;11.70;99.90
64561;DHT22;50960;46.838;16.838;2023-10-31T18:30:58;11.70;99.90
64561;DHT22;50960;46.838;16.838;2023-10-31T18:33:24;11.70;99.90
64561;DHT22;50960;46.838;16.838;2023-10-31T18:35:51;11.60;99.90
64561;DHT22;50960;46.838;16.838;2023-10-31T18:38:17;11.60;99.90
64561;DHT22;50960;46.838;16.838;2023-10-31T18:40:44;11.70;99.90
64561;DHT22;50960;46.838;16.838;2023-10-31T18:43:11;11.60;99.90
64561;DHT22;50960;46.838;16.838;2023-10-31T18:45:38;11.70;99.90
64561;DHT22;50960;46.838;16.838;2023-10-31T18:48:04;11.50;99.90
64561;DHT22;50960;46.838;16.838;2023-10-31T18:50:30;11.40;99.90
64561;DHT22;50960;46.838;16.838;2023-10-31T18:52:57;11.50;99.90
64561;DHT22;50960;46.838;16.838;2023-10-31T18:55:23;11.50;99.90
64561;DHT22;50960;46.838;16.838;2023-10-31T18:57:49;11.60;99.90
64561;DHT22;50960;46.838;16.838;2023-10-31T19:32:30;11.50;99.90
64561;DHT22;50960;46.838;16.838;2023-10-31T19:34:57;11.30;99.90
64561;DHT22;50960;46.838;16.838;2023-10-31T19:37:25;11.40;99.90
64561;DHT22;50960;46.838;16.838;2023-10-31T19:39:52;11.30;99.90
64561;DHT22;50960;46.838;16.838;2023-10-31T19:42:19;11.40;99.90
64561;DHT22;50960;46.838;16.838;2023-10-31T19:44:45;11.20;99.90
64561;DHT22;50960;46.838;16.838;2023-10-31T19:47:12;11.30;99.90
64561;DHT22;50960;46.838;16.838;2023-10-31T19:49:38;11.30;99.90
64561;DHT22;50960;46.838;16.838;2023-10-31T19:52:05;11.00;99.90
64561;DHT22;50960;46.838;16.838;2023-10-31T19:54:33;11.10;99.90
64561;DHT22;50960;46.838;16.838;2023-10-31T19:57:00;11.00;99.90
64561;DHT22;50960;46.838;16.838;2023-10-31T19:59:26;11.10;99.90
64561;DHT22;50960;46.838;16.838;2023-10-31T20:01:54;11.30;99.90
64561;DHT22;50960;46.838;16.838;2023-10-31T20:04:22;10.80;99.90
64561;DHT22;50960;46.838;16.838;2023-10-31T20:06:48;11.00;99.90
64561;DHT22;50960;46.838;16.838;2023-10-31T20:09:15;10.70;99.90
64561;DHT22;50960;46.838;16.838;2023-10-31T20:11:41;10.10;99.90
64561;DHT22;50960;46.838;16.838;2023-10-31T20:14:07;10.50;99.90
64561;DHT22;50960;46.838;16.838;2023-10-31T20:16:34;10.50;99.90
64561;DHT22;50960;46.838;16.838;2023-10-31T20:19:00;10.40;99.90
64561;DHT22;50960;46.838;16.838;2023-10-31T20:21:26;10.30;99.90
64561;DHT22;50960;46.838;16.838;2023-10-31T20:23:53;10.50;99.90
64561;DHT22;50960;46.838;16.838;2023-10-31T20:26:20;10.40;99.90
64561;DHT22;50960;46.838;16.838;2023-10-31T20:29:42;10.20;99.90
